METAR AND TAF INFORMATION
METAR FOR UKKK
ADDS - METARS form results

(2126 UTC 26 May 2018)
Data provider http://aviationweather.gov/adds/metars/
 
METAR text: UKKK 262100Z 10004MPS CAVOK 16/02 Q1027 R08/70D NOSIG
Conditions at: UKKK (KIEV/ZHYLIANY , UA) observed 2100 UTC 26 May 2018
Temperature: 16.0°C (61°F)
Dewpoint: 2.0°C (36°F) [RH = 39%]
Pressure (altimeter): 30.32 inches Hg (1027.0 mb)
Winds: from the E (100 degrees) at 9 MPH (8 knots; 4.2 m/s)
Visibility: 6 or more miles (10+ km)
Ceiling: ceiling and visibility are OK
Clouds: unknown
Weather: no significant weather observed at this time

METAR text: UKKK 262030Z 10004MPS CAVOK 17/02 Q1027 R08/70D NOSIG
Conditions at: UKKK (KIEV/ZHYLIANY , UA) observed 2030 UTC 26 May 2018
Temperature: 17.0°C (63°F)
Dewpoint: 2.0°C (36°F) [RH = 36%]
Pressure (altimeter): 30.32 inches Hg (1027.0 mb)
Winds: from the E (100 degrees) at 9 MPH (8 knots; 4.2 m/s)
Visibility: 6 or more miles (10+ km)
Ceiling: ceiling and visibility are OK
Clouds: unknown
Weather: no significant weather observed at this time

Forecast for: UKKK (KIEV/ZHYLIANY , UA)
Text: TAF UKKK 261702Z 2618/2718 09006G12MPS 9999 SCT040
Forecast period: 1800 UTC 26 May 2018 to 1800 UTC 27 May 2018
Forecast type: FROM: standard forecast or significant change
Winds: from the E (90 degrees) at 14 MPH (12 knots; 6.2 m/s)
gusting to 26 MPH (23 knots; 12.0 m/s)
Visibility: 6 or more miles (10+ km)
Clouds: scattered clouds at 4000 feet AGL
Weather: no significant weather forecast for this period
Text: TEMPO 2710/2715 11008G13MPS
Forecast period: 1000 to 1500 UTC 27 May 2018
Forecast type: TEMPORARY: The following changes expected for less than half the time period
Winds: from the ESE (110 degrees) at 18 MPH (16 knots; 8.3 m/s)
gusting to 29 MPH (25 knots; 13.0 m/s)
Weather: no significant weather forecast for this period

 AIRPORT MAP

 RUNWAY INFORMATION
Runway 08 Runway length 5905 ft Runway width 161 ft
Runway elevation 559 ft Runway displaced threshold 0 ft Runway heading 86
Runway 26 Runway length 5905 ft Runway width 161 ft
Runway elevation 586 ft Runway displaced threshold 0 ft Runway heading 266

 AIRPORT FREQUENCIES
Type APP Name ARR Frequency 122.5 MHZ
Type APP Name KYIV RADAR Frequency 123 MHZ
Type GND Name GND Frequency 119 MHZ
Type PMSV Name METEO Frequency 126.8 MHZ
Type TWR Name TWR Frequency 122.5 MHZ

 AIRPORT NEAR NAVIGATION AIDS
Type NDB Name Zhulyany Frequency 360 KHZ
Type NDB Name Zhulyany Frequency 360 KHZ



Powered by Virtual Airlines Manager